sensor_id;sensor_type;location;lat;lon;timestamp;temperature;humidity
4090;DHT22;2059;48.538;12.146;2023-04-16T09:26:47;11.80;99.90
4090;DHT22;2059;48.538;12.146;2023-04-16T09:32:00;12.20;99.90
4090;DHT22;2059;48.538;12.146;2023-04-16T09:37:15;11.70;99.90
4090;DHT22;2059;48.538;12.146;2023-04-16T09:42:26;12.00;99.90
4090;DHT22;2059;48.538;12.146;2023-04-16T09:47:38;12.30;99.90
4090;DHT22;2059;48.538;12.146;2023-04-16T09:52:42;12.30;99.90
4090;DHT22;2059;48.538;12.146;2023-04-16T09:57:46;12.50;99.90
4090;DHT22;2059;48.538;12.146;2023-04-16T10:02:48;11.90;99.90
4090;DHT22;2059;48.538;12.146;2023-04-16T10:07:50;11.80;99.90
4090;DHT22;2059;48.538;12.146;2023-04-16T10:12:54;11.60;99.90
4090;DHT22;2059;48.538;12.146;2023-04-16T10:17:57;11.70;99.90
4090;DHT22;2059;48.538;12.146;2023-04-16T10:23:00;12.20;99.90
4090;DHT22;2059;48.538;12.146;2023-04-16T10:28:04;13.20;99.60
4090;DHT22;2059;48.538;12.146;2023-04-16T10:33:06;14.50;98.20
4090;DHT22;2059;48.538;12.146;2023-04-16T10:38:20;15.80;96.80
4090;DHT22;2059;48.538;12.146;2023-04-16T10:43:24;15.90;95.40
4090;DHT22;2059;48.538;12.146;2023-04-16T10:48:26;16.30;94.90
4090;DHT22;2059;48.538;12.146;2023-04-16T10:53:30;16.00;94.50
4090;DHT22;2059;48.538;12.146;2023-04-16T10:58:35;16.00;94.20
4090;DHT22;2059;48.538;12.146;2023-04-16T11:03:40;15.80;94.20
4090;DHT22;2059;48.538;12.146;2023-04-16T11:08:44;15.90;93.80
4090;DHT22;2059;48.538;12.146;2023-04-16T11:13:48;15.30;93.80
4090;DHT22;2059;48.538;12.146;2023-04-16T11:18:50;14.80;94.30
4090;DHT22;2059;48.538;12.146;2023-04-16T11:23:52;13.40;95.80
4090;DHT22;2059;48.538;12.146;2023-04-16T11:28:56;13.10;96.30
4090;DHT22;2059;48.538;12.146;2023-04-16T11:33:59;12.60;97.70
4090;DHT22;2059;48.538;12.146;2023-04-16T11:39:03;12.60;97.60
4090;DHT22;2059;48.538;12.146;2023-04-16T11:44:18;12.00;98.10
4090;DHT22;2059;48.538;12.146;2023-04-16T11:49:26;12.00;98.20
4090;DHT22;2059;48.538;12.146;2023-04-16T11:54:28;12.30;98.20
4090;DHT22;2059;48.538;12.146;2023-04-16T11:59:35;12.50;97.80
4090;DHT22;2059;48.538;12.146;2023-04-16T12:04:37;12.90;97.80
4090;DHT22;2059;48.538;12.146;2023-04-16T12:09:40;13.20;97.20
4090;DHT22;2059;48.538;12.146;2023-04-16T12:14:50;13.50;97.00
4090;DHT22;2059;48.538;12.146;2023-04-16T12:19:55;14.00;96.20
4090;DHT22;2059;48.538;12.146;2023-04-16T12:24:58;14.10;95.90
4090;DHT22;2059;48.538;12.146;2023-04-16T12:30:07;14.10;96.20
4090;DHT22;2059;48.538;12.146;2023-04-16T12:35:09;14.30;95.70
4090;DHT22;2059;48.538;12.146;2023-04-16T12:40:12;14.90;94.50
4090;DHT22;2059;48.538;12.146;2023-04-16T12:45:15;15.00;94.60
4090;DHT22;2059;48.538;12.146;2023-04-16T12:50:17;14.90;94.00
4090;DHT22;2059;48.538;12.146;2023-04-16T12:55:19;15.00;94.00
4090;DHT22;2059;48.538;12.146;2023-04-16T13:00:22;15.60;93.60
4090;DHT22;2059;48.538;12.146;2023-04-16T13:05:24;15.40;93.50
4090;DHT22;2059;48.538;12.146;2023-04-16T13:10:26;15.70;93.70
4090;DHT22;2059;48.538;12.146;2023-04-16T13:15:29;15.90;93.30
4090;DHT22;2059;48.538;12.146;2023-04-16T13:20:32;16.20;92.70
4090;DHT22;2059;48.538;12.146;2023-04-16T13:25:34;15.90;92.70
4090;DHT22;2059;48.538;12.146;2023-04-16T13:30:37;15.90;92.50
4090;DHT22;2059;48.538;12.146;2023-04-16T13:35:39;16.50;92.50
4090;DHT22;2059;48.538;12.146;2023-04-16T13:40:41;16.70;91.90
4090;DHT22;2059;48.538;12.146;2023-04-16T13:45:44;17.30;90.60
4090;DHT22;2059;48.538;12.146;2023-04-16T13:50:46;16.60;91.10
4090;DHT22;2059;48.538;12.146;2023-04-16T13:55:50;16.40;91.90
4090;DHT22;2059;48.538;12.146;2023-04-16T14:00:53;16.60;92.30
4090;DHT22;2059;48.538;12.146;2023-04-16T14:05:55;16.30;91.70
4090;DHT22;2059;48.538;12.146;2023-04-16T14:10:57;16.70;91.60
4090;DHT22;2059;48.538;12.146;2023-04-16T14:16:01;16.80;91.00
4090;DHT22;2059;48.538;12.146;2023-04-16T14:21:03;16.90;90.70
4090;DHT22;2059;48.538;12.146;2023-04-16T14:26:05;16.30;90.90
4090;DHT22;2059;48.538;12.146;2023-04-16T14:31:08;15.70;92.10
4090;DHT22;2059;48.538;12.146;2023-04-16T14:36:10;16.00;92.50
4090;DHT22;2059;48.538;12.146;2023-04-16T14:41:12;16.20;92.10
4090;DHT22;2059;48.538;12.146;2023-04-16T14:46:15;15.70;92.40
4090;DHT22;2059;48.538;12.146;2023-04-16T14:51:17;16.00;92.00
4090;DHT22;2059;48.538;12.146;2023-04-16T14:56:19;15.50;92.10
4090;DHT22;2059;48.538;12.146;2023-04-16T15:01:22;15.20;91.90
4090;DHT22;2059;48.538;12.146;2023-04-16T15:06:24;15.40;92.60
4090;DHT22;2059;48.538;12.146;2023-04-16T15:11:27;15.20;91.60
4090;DHT22;2059;48.538;12.146;2023-04-16T15:16:31;15.70;91.90
4090;DHT22;2059;48.538;12.146;2023-04-16T15:21:32;17.50;90.20
4090;DHT22;2059;48.538;12.146;2023-04-16T15:26:34;17.90;86.70
4090;DHT22;2059;48.538;12.146;2023-04-16T15:31:37;18.20;88.50
4090;DHT22;2059;48.538;12.146;2023-04-16T15:36:39;20.10;82.70
4090;DHT22;2059;48.538;12.146;2023-04-16T15:41:42;19.40;83.30
4090;DHT22;2059;48.538;12.146;2023-04-16T15:46:45;17.50;86.30
4090;DHT22;2059;48.538;12.146;2023-04-16T15:51:47;15.90;90.00
4090;DHT22;2059;48.538;12.146;2023-04-16T15:56:49;16.70;89.90
4090;DHT22;2059;48.538;12.146;2023-04-16T16:01:52;16.00;90.10
4090;DHT22;2059;48.538;12.146;2023-04-16T16:06:55;17.50;87.30
4090;DHT22;2059;48.538;12.146;2023-04-16T16:11:57;18.20;86.20
4090;DHT22;2059;48.538;12.146;2023-04-16T16:17:00;17.20;86.50
4090;DHT22;2059;48.538;12.146;2023-04-16T16:22:03;16.40;89.30
4090;DHT22;2059;48.538;12.146;2023-04-16T16:27:05;15.90;90.20
4090;DHT22;2059;48.538;12.146;2023-04-16T16:32:08;15.40;90.40
4090;DHT22;2059;48.538;12.146;2023-04-16T16:37:11;15.80;90.80
4090;DHT22;2059;48.538;12.146;2023-04-16T16:42:12;16.10;90.20
4090;DHT22;2059;48.538;12.146;2023-04-16T16:47:19;17.50;90.00
4090;DHT22;2059;48.538;12.146;2023-04-16T16:52:22;17.70;87.60
4090;DHT22;2059;48.538;12.146;2023-04-16T16:57:24;16.20;89.00
4090;DHT22;2059;48.538;12.146;2023-04-16T17:02:27;15.00;91.30
4090;DHT22;2059;48.538;12.146;2023-04-16T17:07:29;14.50;92.20
4090;DHT22;2059;48.538;12.146;2023-04-16T17:12:32;13.90;92.90
4090;DHT22;2059;48.538;12.146;2023-04-16T17:17:35;13.80;93.10
4090;DHT22;2059;48.538;12.146;2023-04-16T17:22:37;13.70;93.40
4090;DHT22;2059;48.538;12.146;2023-04-16T17:27:39;13.10;94.00
4090;DHT22;2059;48.538;12.146;2023-04-16T17:32:43;13.00;94.40
4090;DHT22;2059;48.538;12.146;2023-04-16T17:37:45;13.10;94.30
4090;DHT22;2059;48.538;12.146;2023-04-16T17:42:48;13.10;94.50
4090;DHT22;2059;48.538;12.146;2023-04-16T17:47:52;13.10;94.70
4090;DHT22;2059;48.538;12.146;2023-04-16T17:52:54;13.30;94.70
4090;DHT22;2059;48.538;12.146;2023-04-16T17:57:57;13.30;94.80
4090;DHT22;2059;48.538;12.146;2023-04-16T18:03:01;13.30;95.20
4090;DHT22;2059;48.538;12.146;2023-04-16T18:08:03;13.10;95.40
4090;DHT22;2059;48.538;12.146;2023-04-16T18:13:05;12.90;95.80
4090;DHT22;2059;48.538;12.146;2023-04-16T18:18:08;12.20;98.10
4090;DHT22;2059;48.538;12.146;2023-04-16T18:23:10;11.50;99.90
4090;DHT22;2059;48.538;12.146;2023-04-16T18:28:12;11.50;99.90
4090;DHT22;2059;48.538;12.146;2023-04-16T18:33:15;11.40;99.90
4090;DHT22;2059;48.538;12.146;2023-04-16T18:38:17;11.10;99.90
4090;DHT22;2059;48.538;12.146;2023-04-16T18:43:19;10.90;99.90
4090;DHT22;2059;48.538;12.146;2023-04-16T18:48:25;11.00;99.90
4090;DHT22;2059;48.538;12.146;2023-04-16T18:53:33;10.80;99.90
4090;DHT22;2059;48.538;12.146;2023-04-16T18:58:37;10.90;99.90
4090;DHT22;2059;48.538;12.146;2023-04-16T19:03:43;10.90;99.90
4090;DHT22;2059;48.538;12.146;2023-04-16T19:08:47;11.00;99.90
4090;DHT22;2059;48.538;12.146;2023-04-16T19:13:51;11.00;99.90
4090;DHT22;2059;48.538;12.146;2023-04-16T19:18:56;10.70;99.90
4090;DHT22;2059;48.538;12.146;2023-04-16T19:23:59;10.70;99.90
4090;DHT22;2059;48.538;12.146;2023-04-16T19:29:01;10.70;99.90
4090;DHT22;2059;48.538;12.146;2023-04-16T19:34:04;11.10;99.90
4090;DHT22;2059;48.538;12.146;2023-04-16T19:39:08;11.00;99.90
4090;DHT22;2059;48.538;12.146;2023-04-16T19:44:10;10.90;99.90
4090;DHT22;2059;48.538;12.146;2023-04-16T19:49:13;10.40;99.90
4090;DHT22;2059;48.538;12.146;2023-04-16T19:54:15;10.60;99.90
4090;DHT22;2059;48.538;12.146;2023-04-16T19:59:17;10.50;99.90
4090;DHT22;2059;48.538;12.146;2023-04-16T20:04:21;10.50;99.90
4090;DHT22;2059;48.538;12.146;2023-04-16T20:09:23;10.20;99.90
4090;DHT22;2059;48.538;12.146;2023-04-16T20:14:25;10.20;99.90
4090;DHT22;2059;48.538;12.146;2023-04-16T20:19:28;10.10;99.90
4090;DHT22;2059;48.538;12.146;2023-04-16T20:24:33;9.70;99.90
4090;DHT22;2059;48.538;12.146;2023-04-16T20:29:37;9.90;99.90
4090;DHT22;2059;48.538;12.146;2023-04-16T20:34:41;9.90;99.90
4090;DHT22;2059;48.538;12.146;2023-04-16T20:39:43;9.90;99.90
4090;DHT22;2059;48.538;12.146;2023-04-16T20:44:46;9.70;99.90
4090;DHT22;2059;48.538;12.146;2023-04-16T20:49:51;9.50;99.90
4090;DHT22;2059;48.538;12.146;2023-04-16T20:54:54;9.40;99.90
4090;DHT22;2059;48.538;12.146;2023-04-16T20:59:56;9.50;99.90
4090;DHT22;2059;48.538;12.146;2023-04-16T21:05:00;9.40;99.90
4090;DHT22;2059;48.538;12.146;2023-04-16T21:10:02;9.40;99.90
4090;DHT22;2059;48.538;12.146;2023-04-16T21:15:05;9.10;99.90
4090;DHT22;2059;48.538;12.146;2023-04-16T21:20:09;8.70;99.90
4090;DHT22;2059;48.538;12.146;2023-04-16T21:25:13;9.00;99.90
4090;DHT22;2059;48.538;12.146;2023-04-16T21:30:15;9.10;99.90
4090;DHT22;2059;48.538;12.146;2023-04-16T21:35:18;9.00;99.90
4090;DHT22;2059;48.538;12.146;2023-04-16T21:40:20;9.20;99.90
4090;DHT22;2059;48.538;12.146;2023-04-16T21:45:22;8.80;99.90
4090;DHT22;2059;48.538;12.146;2023-04-16T21:50:25;8.40;99.90
4090;DHT22;2059;48.538;12.146;2023-04-16T21:55:27;8.20;99.90
4090;DHT22;2059;48.538;12.146;2023-04-16T22:00:29;8.10;99.90
4090;DHT22;2059;48.538;12.146;2023-04-16T22:05:32;8.20;99.90
4090;DHT22;2059;48.538;12.146;2023-04-16T22:10:34;8.20;99.90
4090;DHT22;2059;48.538;12.146;2023-04-16T22:15:37;8.20;99.90
4090;DHT22;2059;48.538;12.146;2023-04-16T22:20:41;8.00;99.90
4090;DHT22;2059;48.538;12.146;2023-04-16T22:25:43;7.80;99.90
4090;DHT22;2059;48.538;12.146;2023-04-16T22:30:45;8.10;99.90
4090;DHT22;2059;48.538;12.146;2023-04-16T22:35:48;8.20;99.90
4090;DHT22;2059;48.538;12.146;2023-04-16T22:40:50;7.80;99.90
4090;DHT22;2059;48.538;12.146;2023-04-16T22:46:00;7.50;99.90
4090;DHT22;2059;48.538;12.146;2023-04-16T22:51:06;7.40;99.90
4090;DHT22;2059;48.538;12.146;2023-04-16T22:56:08;7.60;99.90
4090;DHT22;2059;48.538;12.146;2023-04-16T23:01:11;7.70;99.90
4090;DHT22;2059;48.538;12.146;2023-04-16T23:06:14;7.40;99.90
4090;DHT22;2059;48.538;12.146;2023-04-16T23:11:17;7.20;99.90
4090;DHT22;2059;48.538;12.146;2023-04-16T23:16:19;7.60;99.90
4090;DHT22;2059;48.538;12.146;2023-04-16T23:21:23;7.50;99.90
4090;DHT22;2059;48.538;12.146;2023-04-16T23:26:25;7.50;99.90
4090;DHT22;2059;48.538;12.146;2023-04-16T23:31:27;7.20;99.90
4090;DHT22;2059;48.538;12.146;2023-04-16T23:36:30;7.40;99.90
4090;DHT22;2059;48.538;12.146;2023-04-16T23:41:32;7.10;99.90
4090;DHT22;2059;48.538;12.146;2023-04-16T23:46:34;7.20;99.90
4090;DHT22;2059;48.538;12.146;2023-04-16T23:51:37;7.20;99.90
4090;DHT22;2059;48.538;12.146;2023-04-16T23:56:39;7.30;99.90
